Aérodrome :
LOGIN :

S'inscrire | Disclaimer

   EN    FR    IT 

 










Légende :    VFR   VFR Marginal   IFR   IFR Intensif   IFR Très Intensif
Visi : 
Plafond : 
>= 8 km
>= 3000ft
5 à 8 km
1000 à 3000 ft
1500m à 5 km
500 à 1000 ft
800 à 1500m
200 à 500 ft
< 800m
< 200 ft
Symboles :   Orages  Brouillard  Fortes neiges  Fortes précipitations  Vent > 20 kt
SIGMETs :   Divers  Orages  Givrage  Turbulence  Onde Orograph.  Cendres Volcan.






- Altitude de l'aérodrome : 289 ft
- Code IATA : ZAD


LDZD - Zadar

DERNIER METAR :
  • 281200Z 29011KT 260V320 9999 FEW050 17/02 Q1013 NOSIG

METARs EXPIRÉS :
  • 281130Z 27010KT 220V310 CAVOK 17/03 Q1013 NOSIG
  • 281100Z 27009KT 230V320 CAVOK 17/03 Q1013 NOSIG
  • 281030Z 30006KT 250V020 CAVOK 16/02 Q1013 BECMG 28010KT
  • 281000Z VRB02KT CAVOK 16/02 Q1014 BECMG 28008KT
  • 280930Z VRB03KT CAVOK 16/01 Q1014 NOSIG

TAF TAF LDZD
Valide du 28 à 12h jusqu'au 29 à 12h UTC


281125Z 2812/2912 28010KT 9999 FEW050 TX18/2911Z TN01/2905Z
BECMG 2816/2818 32004KT
PROB40
TEMPO 2820/2900 3000 BCFG
PROB40 2900/2906 0800 FG
PROB30
TEMPO 2901/2906 0500
BECMG 2910/2912 27009KT



MET'MAP, la Météo Aéronautique d'un coup d'oeil ! - Copyright ORBIFLY Décembre 2007 - Disclaimer

ORBIFLY MET'MAP TEAM :

Programmation & Développement : Alexandra Zaïnal
Sur une idée originale de : Baudouin d'Aumeries
Assistance à la programmation : Marc-Olivier Méhu
Soutien technique & logistique : Manuel Goepfert

Contact : metmap@orbifly.com




SOURCES & CREDITS :

   NOAA